Time;durP1;ratioP1;P1;durP2;ratioP2;P2;SDS_P1;SDS_P2;PMS_P1;PMS_P2;Temp;Humidity;BMP_temperature;BMP_pressure;BME280_temperature;BME280_humidity;BME280_pressure;Samples;Min_cycle;Max_cycle;Signal;HPM_P1;HPM_P2
2020/12/27 00:01:45;;;;;;;159.53;55.07;;;;;;;;;;5036449;28;20037;-67
2020/12/27 00:04:11;;;;;;;188.30;66.10;;;;;;;;;;5036413;28;20091;-66
2020/12/27 00:06:37;;;;;;;50.10;18.13;;;;;;;;;;5036254;28;20045;-67
2020/12/27 00:09:03;;;;;;;52.30;19.70;;;;;;;;;;5036063;28;20026;-67
2020/12/27 00:11:29;;;;;;;222.17;76.63;;;;;;;;;;5036212;28;20033;-67
2020/12/27 00:13:55;;;;;;;98.90;32.23;;;;;;;;;;5035912;28;20497;-67
2020/12/27 00:16:25;;;;;;;17.70;8.00;;;;;;;;;;5035958;28;20454;-67
2020/12/27 00:18:51;;;;;;;12.90;5.57;;;;;;;;;;5035931;28;20029;-67
2020/12/27 00:21:18;;;;;;;11.93;5.03;;;;;;;;;;5036147;28;20110;-67
2020/12/27 00:23:44;;;;;;;4.70;3.10;;;;;;;;;;5035835;28;20061;-66
2020/12/27 00:26:12;;;;;;;4.70;3.07;;;;;;;;;;5035820;28;20025;-67
2020/12/27 00:28:38;;;;;;;3.93;2.77;;;;;;;;;;5035838;28;20033;-67
2020/12/27 00:31:04;;;;;;;7.73;3.97;;;;;;;;;;5035812;28;20096;-67
2020/12/27 00:33:31;;;;;;;6.13;3.37;;;;;;;;;;5035444;28;20096;-67
2020/12/27 00:35:57;;;;;;;7.27;3.20;;;;;;;;;;5035423;28;20084;-66
2020/12/27 00:38:23;;;;;;;5.33;3.23;;;;;;;;;;5035691;28;20482;-67
2020/12/27 00:40:49;;;;;;;10.63;4.93;;;;;;;;;;5035414;28;20029;-67
2020/12/27 00:43:15;;;;;;;70.60;25.07;;;;;;;;;;5035399;28;20084;-67
2020/12/27 00:45:41;;;;;;;75.73;26.87;;;;;;;;;;5035295;28;20359;-67
2020/12/27 00:48:07;;;;;;;41.40;16.47;;;;;;;;;;5035470;28;20028;-67
2020/12/27 00:50:33;;;;;;;118.97;50.43;;;;;;;;;;5035271;28;20022;-67
2020/12/27 00:52:59;;;;;;;55.23;23.37;;;;;;;;;;5035280;28;20034;-66
2020/12/27 00:55:25;;;;;;;9.27;5.03;;;;;;;;;;5034709;28;20104;-66
2020/12/27 00:57:51;;;;;;;21.33;9.80;;;;;;;;;;5035225;28;20069;-67
2020/12/27 01:00:17;;;;;;;16.67;8.97;;;;;;;;;;5035148;28;20087;-67
2020/12/27 01:02:43;;;;;;;14.50;7.80;;;;;;;;;;5034966;28;20496;-67
2020/12/27 01:05:09;;;;;;;16.17;8.87;;;;;;;;;;5035126;28;20496;-66
2020/12/27 01:07:35;;;;;;;4.13;1.90;;;;;;;;;;5035115;28;20021;-67
2020/12/27 01:10:02;;;;;;;7.67;3.00;;;;;;;;;;5035028;28;20027;-67
2020/12/27 01:12:28;;;;;;;5.57;3.10;;;;;;;;;;5035062;28;20025;-67
2020/12/27 01:14:54;;;;;;;3.27;2.13;;;;;;;;;;5035296;28;20025;-67
2020/12/27 01:17:20;;;;;;;2.30;1.60;;;;;;;;;;5034651;28;20028;-67
2020/12/27 01:19:46;;;;;;;2.57;1.53;;;;;;;;;;5034846;28;20057;-67
2020/12/27 01:22:12;;;;;;;2.93;1.73;;;;;;;;;;5034788;28;20033;-67
2020/12/27 01:24:38;;;;;;;2.13;1.43;;;;;;;;;;5034846;28;20335;-67
2020/12/27 01:27:04;;;;;;;1.73;1.50;;;;;;;;;;5033276;28;20532;-67
2020/12/27 01:29:30;;;;;;;9.07;5.23;;;;;;;;;;5034534;28;20064;-67
2020/12/27 01:32:01;;;;;;;10.03;6.83;;;;;;;;;;5034405;28;20470;-67
2020/12/27 01:34:27;;;;;;;6.47;4.00;;;;;;;;;;5034302;28;20155;-67
2020/12/27 01:36:53;;;;;;;9.53;6.37;;;;;;;;;;5033747;28;20050;-67
2020/12/27 01:39:19;;;;;;;3.77;2.37;;;;;;;;;;5033658;28;20490;-66
2020/12/27 01:41:45;;;;;;;4.97;3.33;;;;;;;;;;5033667;28;20021;-67
2020/12/27 01:44:13;;;;;;;13.53;9.73;;;;;;;;;;5034411;28;20029;-67
2020/12/27 01:46:40;;;;;;;7.13;4.80;;;;;;;;;;5034410;28;20048;-66
2020/12/27 01:49:07;;;;;;;5.77;3.93;;;;;;;;;;5034330;28;20030;-67
2020/12/27 01:51:33;;;;;;;7.90;4.90;;;;;;;;;;5034344;28;20359;-67
2020/12/27 01:54:00;;;;;;;17.77;13.27;;;;;;;;;;5033892;28;20075;-67
2020/12/27 01:56:27;;;;;;;7.77;5.43;;;;;;;;;;5033816;28;20140;-67
2020/12/27 01:58:58;;;;;;;8.33;6.13;;;;;;;;;;5032009;28;20026;-67
2020/12/27 02:01:24;;;;;;;5.97;3.70;;;;;;;;;;5031336;28;20025;-67
2020/12/27 02:03:50;;;;;;;5.40;2.03;;;;;;;;;;5031418;28;20030;-67
2020/12/27 02:06:16;;;;;;;2.30;1.83;;;;;;;;;;5032639;28;20097;-67
2020/12/27 02:08:42;;;;;;;3.77;1.90;;;;;;;;;;5033862;28;20021;-66
2020/12/27 02:11:08;;;;;;;4.13;2.20;;;;;;;;;;5033884;28;20501;-67
2020/12/27 02:13:34;;;;;;;5.13;1.90;;;;;;;;;;5033755;28;20044;-67
2020/12/27 02:16:00;;;;;;;2.77;1.90;;;;;;;;;;5033560;28;20025;-67
2020/12/27 02:18:26;;;;;;;3.67;1.90;;;;;;;;;;5033589;28;20049;-67
2020/12/27 02:20:52;;;;;;;3.90;1.67;;;;;;;;;;5033584;28;20047;-67
2020/12/27 02:23:19;;;;;;;3.10;1.73;;;;;;;;;;5033688;28;20030;-66
2020/12/27 02:25:45;;;;;;;2.70;1.67;;;;;;;;;;5033833;28;20030;-67
2020/12/27 02:28:12;;;;;;;3.00;1.60;;;;;;;;;;5033205;28;20136;-67
2020/12/27 02:30:38;;;;;;;2.90;1.60;;;;;;;;;;5033490;28;20029;-67
2020/12/27 02:33:04;;;;;;;3.77;2.00;;;;;;;;;;5033361;28;20033;-66
2020/12/27 02:35:30;;;;;;;2.63;1.60;;;;;;;;;;5033030;28;20041;-67
2020/12/27 02:37:56;;;;;;;5.27;1.80;;;;;;;;;;5033303;28;20037;-67
2020/12/27 02:40:22;;;;;;;2.67;1.77;;;;;;;;;;5033393;28;20075;-67
2020/12/27 02:42:49;;;;;;;2.70;1.50;;;;;;;;;;5032983;28;20470;-66
2020/12/27 02:45:15;;;;;;;2.23;1.47;;;;;;;;;;5032736;28;20091;-67
2020/12/27 02:47:41;;;;;;;2.33;1.50;;;;;;;;;;5033253;28;20013;-67
2020/12/27 02:50:12;;;;;;;3.87;1.67;;;;;;;;;;5032934;28;20033;-67
2020/12/27 02:52:38;;;;;;;2.00;1.30;;;;;;;;;;5033393;28;20029;-67
2020/12/27 02:55:05;;;;;;;2.37;1.20;;;;;;;;;;5032969;28;20061;-67
2020/12/27 02:57:31;;;;;;;2.47;1.30;;;;;;;;;;5032743;28;20547;-66
2020/12/27 02:59:57;;;;;;;2.40;1.47;;;;;;;;;;5033183;28;20026;-66
2020/12/27 03:02:23;;;;;;;2.10;1.20;;;;;;;;;;5033039;28;20121;-66
2020/12/27 03:04:49;;;;;;;2.90;1.40;;;;;;;;;;5033118;28;20028;-66
2020/12/27 03:07:15;;;;;;;2.37;1.10;;;;;;;;;;5032996;28;20030;-66
2020/12/27 03:09:41;;;;;;;3.40;1.33;;;;;;;;;;5033259;28;20025;-67
2020/12/27 03:12:07;;;;;;;2.07;1.10;;;;;;;;;;5033023;28;20116;-66
2020/12/27 03:14:34;;;;;;;3.07;1.57;;;;;;;;;;5032873;28;20025;-67
2020/12/27 03:17:00;;;;;;;3.63;1.53;;;;;;;;;;5032980;28;20359;-67
2020/12/27 03:19:26;;;;;;;1.63;1.03;;;;;;;;;;5037024;28;20072;-67
2020/12/27 03:21:52;;;;;;;1.30;0.90;;;;;;;;;;5037033;28;20025;-67
2020/12/27 03:24:18;;;;;;;2.23;1.37;;;;;;;;;;5037094;28;20029;-67
2020/12/27 03:26:44;;;;;;;2.40;1.20;;;;;;;;;;5036824;28;20029;-67
2020/12/27 03:29:10;;;;;;;2.10;1.40;;;;;;;;;;5037011;28;20120;-67
2020/12/27 03:31:36;;;;;;;2.33;1.30;;;;;;;;;;5036908;28;20022;-67
2020/12/27 03:34:02;;;;;;;2.50;1.10;;;;;;;;;;5036937;28;20366;-67
2020/12/27 03:36:28;;;;;;;1.87;1.10;;;;;;;;;;5036618;28;20377;-67
2020/12/27 03:38:54;;;;;;;3.63;1.30;;;;;;;;;;5036821;28;20061;-67
2020/12/27 03:41:20;;;;;;;2.87;1.10;;;;;;;;;;5036853;28;20051;-67
2020/12/27 03:43:46;;;;;;;1.43;1.00;;;;;;;;;;5036370;28;20112;-67
2020/12/27 03:46:13;;;;;;;2.13;1.13;;;;;;;;;;5036342;28;20474;-67
2020/12/27 03:48:39;;;;;;;2.80;1.30;;;;;;;;;;5036432;28;20036;-67
2020/12/27 03:51:05;;;;;;;1.63;0.93;;;;;;;;;;5036647;28;20540;-67
2020/12/27 03:53:31;;;;;;;2.57;1.30;;;;;;;;;;5036408;28;20032;-67
2020/12/27 03:55:57;;;;;;;3.40;1.60;;;;;;;;;;5036366;28;20026;-67
2020/12/27 03:58:23;;;;;;;1.67;1.10;;;;;;;;;;5036072;28;20553;-67
2020/12/27 04:00:49;;;;;;;2.47;1.20;;;;;;;;;;5036258;28;20057;-67
2020/12/27 04:03:15;;;;;;;2.50;1.40;;;;;;;;;;5035790;28;20072;-67
2020/12/27 04:05:41;;;;;;;3.03;1.17;;;;;;;;;;5035950;28;20045;-67
2020/12/27 04:08:07;;;;;;;3.63;0.90;;;;;;;;;;5036148;28;20030;-67
2020/12/27 04:10:33;;;;;;;1.17;0.80;;;;;;;;;;5036331;28;20478;-67
2020/12/27 04:12:59;;;;;;;2.33;1.40;;;;;;;;;;5036387;28;20535;-67
2020/12/27 04:15:25;;;;;;;2.60;1.30;;;;;;;;;;5035973;28;20489;-67
2020/12/27 04:17:51;;;;;;;1.87;1.30;;;;;;;;;;5036000;28;20025;-67
2020/12/27 04:20:17;;;;;;;3.17;1.20;;;;;;;;;;5035873;28;20018;-67
2020/12/27 04:22:43;;;;;;;2.07;1.20;;;;;;;;;;5036112;28;20025;-66
2020/12/27 04:25:09;;;;;;;3.03;1.40;;;;;;;;;;5036178;28;20082;-68
2020/12/27 04:27:35;;;;;;;2.60;1.33;;;;;;;;;;5036006;28;20474;-67
2020/12/27 04:30:01;;;;;;;2.10;1.13;;;;;;;;;;5035000;28;20053;-67
2020/12/27 04:32:27;;;;;;;2.10;1.30;;;;;;;;;;5035484;28;20028;-67
2020/12/27 04:34:53;;;;;;;4.03;1.30;;;;;;;;;;5035683;28;20029;-67
2020/12/27 04:37:19;;;;;;;1.80;1.20;;;;;;;;;;5035551;28;20463;-67
2020/12/27 04:39:46;;;;;;;1.90;1.17;;;;;;;;;;5035391;28;20053;-67
2020/12/27 04:42:12;;;;;;;2.57;1.10;;;;;;;;;;5035641;28;20416;-67
2020/12/27 04:44:39;;;;;;;2.03;1.10;;;;;;;;;;5035507;28;20099;-66
2020/12/27 04:47:05;;;;;;;2.97;1.10;;;;;;;;;;5035431;28;20044;-66
2020/12/27 04:49:31;;;;;;;1.60;0.80;;;;;;;;;;5034223;28;20393;-66
2020/12/27 04:52:00;;;;;;;2.03;1.10;;;;;;;;;;5035291;28;20036;-66
2020/12/27 04:54:27;;;;;;;1.27;0.90;;;;;;;;;;5035325;28;20082;-67
2020/12/27 04:56:53;;;;;;;1.77;1.00;;;;;;;;;;5035205;28;20155;-66
2020/12/27 04:59:19;;;;;;;2.77;1.30;;;;;;;;;;5035311;28;20075;-67
2020/12/27 05:01:45;;;;;;;1.90;1.30;;;;;;;;;;5035163;28;20124;-67
2020/12/27 05:04:18;;;;;;;1.80;1.20;;;;;;;;;;5035113;28;20113;-67
2020/12/27 05:06:45;;;;;;;1.95;1.27;;;;;;;;;;5035133;28;20131;-66
2020/12/27 05:09:11;;;;;;;2.20;1.30;;;;;;;;;;5035123;28;20025;-67
2020/12/27 05:11:37;;;;;;;1.83;1.30;;;;;;;;;;5035197;28;20108;-67
2020/12/27 05:14:04;;;;;;;2.83;1.70;;;;;;;;;;5034900;28;20393;-66
2020/12/27 05:16:31;;;;;;;1.53;1.20;;;;;;;;;;5034964;28;20017;-67
2020/12/27 05:18:58;;;;;;;3.87;1.30;;;;;;;;;;5034828;28;20028;-67
2020/12/27 05:21:25;;;;;;;2.20;1.20;;;;;;;;;;5035009;28;20070;-66
2020/12/27 05:23:51;;;;;;;2.33;1.30;;;;;;;;;;5034646;28;20040;-67
2020/12/27 05:26:18;;;;;;;2.80;1.30;;;;;;;;;;5034464;28;20021;-67
2020/12/27 05:28:45;;;;;;;1.50;1.00;;;;;;;;;;5034748;28;20033;-67
2020/12/27 05:31:14;;;;;;;3.87;1.43;;;;;;;;;;5034887;28;20087;-67
2020/12/27 05:33:41;;;;;;;2.33;1.17;;;;;;;;;;5034957;28;20588;-67
2020/12/27 05:36:07;;;;;;;2.27;1.23;;;;;;;;;;5034463;28;20061;-67
2020/12/27 05:38:33;;;;;;;2.73;1.30;;;;;;;;;;5033755;28;20032;-67
2020/12/27 05:41:02;;;;;;;1.83;1.10;;;;;;;;;;5032899;28;20108;-67
2020/12/27 05:43:28;;;;;;;2.20;1.33;;;;;;;;;;5033908;28;20389;-67
2020/12/27 05:45:56;;;;;;;2.33;1.10;;;;;;;;;;5033950;28;20026;-67
2020/12/27 05:48:22;;;;;;;3.37;1.40;;;;;;;;;;5034421;28;20028;-66
2020/12/27 05:50:53;;;;;;;1.80;1.10;;;;;;;;;;5034172;28;20040;-67
2020/12/27 05:53:22;;;;;;;2.97;1.00;;;;;;;;;;5033983;28;20382;-66
2020/12/27 05:55:52;;;;;;;3.47;1.23;;;;;;;;;;5034121;28;20033;-66
2020/12/27 05:58:20;;;;;;;1.47;1.00;;;;;;;;;;5034228;28;20374;-67
2020/12/27 06:00:50;;;;;;;2.00;1.13;;;;;;;;;;5034235;28;20030;-67
2020/12/27 06:03:18;;;;;;;3.03;1.30;;;;;;;;;;5033890;28;20516;-67
2020/12/27 06:05:47;;;;;;;4.90;1.50;;;;;;;;;;5034118;28;20029;-67
2020/12/27 06:08:19;;;;;;;4.07;1.67;;;;;;;;;;5033672;28;20026;-67
2020/12/27 06:10:55;;;;;;;2.33;1.55;;;;;;;;;;5033765;28;20022;-67
2020/12/27 06:13:21;;;;;;;3.70;1.63;;;;;;;;;;5034042;28;20025;-67
2020/12/27 06:15:48;;;;;;;2.10;1.30;;;;;;;;;;5033738;28;20036;-67
2020/12/27 06:18:14;;;;;;;2.87;1.67;;;;;;;;;;5033741;28;20030;-67
2020/12/27 06:20:42;;;;;;;2.77;1.60;;;;;;;;;;5033718;28;20049;-67
2020/12/27 06:23:08;;;;;;;7.77;4.23;;;;;;;;;;5033524;28;20084;-66
2020/12/27 06:25:35;;;;;;;11.77;7.20;;;;;;;;;;5033584;28;20108;-66
2020/12/27 06:28:01;;;;;;;4.60;3.20;;;;;;;;;;5033454;28;20030;-67
2020/12/27 06:30:32;;;;;;;3.03;1.67;;;;;;;;;;5033146;28;20142;-67
2020/12/27 06:33:05;;;;;;;3.30;2.20;;;;;;;;;;5033625;28;20041;-67
2020/12/27 06:35:36;;;;;;;2.35;1.60;;;;;;;;;;5033145;28;20075;-67
2020/12/27 06:38:03;;;;;;;3.10;1.20;;;;;;;;;;5033343;28;20041;-67
2020/12/27 06:40:31;;;;;;;1.77;1.10;;;;;;;;;;5033278;28;20100;-67
2020/12/27 06:43:13;;;;;;;1.83;1.10;;;;;;;;;;5033431;28;20059;-66
2020/12/27 06:45:39;;;;;;;2.03;1.17;;;;;;;;;;5033075;28;20171;-67
2020/12/27 06:48:05;;;;;;;2.10;1.30;;;;;;;;;;5033261;28;20029;-67
2020/12/27 06:50:31;;;;;;;2.20;1.23;;;;;;;;;;5033095;28;20381;-67
2020/12/27 06:52:57;;;;;;;3.50;1.40;;;;;;;;;;5032792;28;20018;-67
2020/12/27 06:55:37;;;;;;;2.60;1.50;;;;;;;;;;5033015;28;20100;-67
2020/12/27 06:58:15;;;;;;;3.33;2.20;;;;;;;;;;5033110;28;20033;-66
2020/12/27 07:00:41;;;;;;;8.33;4.30;;;;;;;;;;5033169;28;20033;-67
2020/12/27 07:03:07;;;;;;;8.23;4.70;;;;;;;;;;5032838;28;20076;-67
2020/12/27 07:05:35;;;;;;;7.30;3.47;;;;;;;;;;5033254;28;20029;-67
2020/12/27 07:08:05;;;;;;;7.17;3.37;;;;;;;;;;5032867;28;20021;-67
2020/12/27 07:10:32;;;;;;;5.33;2.90;;;;;;;;;;5032864;28;20059;-67
2020/12/27 07:13:05;;;;;;;7.10;2.60;;;;;;;;;;5032927;28;20025;-67
2020/12/27 07:15:32;;;;;;;4.03;2.37;;;;;;;;;;5032764;28;20053;-67
2020/12/27 07:18:05;;;;;;;4.53;2.40;;;;;;;;;;5031374;28;20022;-67
2020/12/27 07:20:31;;;;;;;5.68;2.97;;;;;;;;;;5032075;28;20048;-67
2020/12/27 07:22:57;;;;;;;6.00;3.23;;;;;;;;;;5031951;28;20143;-67
2020/12/27 07:25:24;;;;;;;6.63;3.50;;;;;;;;;;5031556;28;20030;-67
2020/12/27 07:27:50;;;;;;;5.20;2.80;;;;;;;;;;5031068;28;20026;-67
2020/12/27 07:30:17;;;;;;;4.77;2.60;;;;;;;;;;5030913;28;20475;-67
2020/12/27 07:32:44;;;;;;;3.27;1.70;;;;;;;;;;5030880;28;20505;-67
2020/12/27 07:35:10;;;;;;;4.00;1.90;;;;;;;;;;5030857;28;20025;-67
2020/12/27 07:37:37;;;;;;;3.07;1.73;;;;;;;;;;5030808;28;20057;-67
2020/12/27 07:40:06;;;;;;;2.80;1.60;;;;;;;;;;5031039;28;20049;-67
2020/12/27 07:42:33;;;;;;;3.60;1.87;;;;;;;;;;5031476;28;20048;-67
2020/12/27 07:45:00;;;;;;;6.17;2.20;;;;;;;;;;5025972;28;20030;-67
2020/12/27 07:47:27;;;;;;;2.70;1.73;;;;;;;;;;5021152;28;20026;-67
2020/12/27 07:50:04;;;;;;;3.53;1.93;;;;;;;;;;5028918;28;20028;-67
2020/12/27 07:52:49;;;;;;;3.17;1.90;;;;;;;;;;5031314;28;20021;-67
2020/12/27 07:55:24;;;;;;;3.30;2.30;;;;;;;;;;5031989;28;20057;-67
2020/12/27 07:57:51;;;;;;;6.23;2.80;;;;;;;;;;5031429;28;20022;-67
2020/12/27 08:00:21;;;;;;;4.83;2.43;;;;;;;;;;5032494;28;20021;-67
2020/12/27 08:02:47;;;;;;;4.40;2.57;;;;;;;;;;5032467;28;20038;-67
2020/12/27 08:05:13;;;;;;;4.10;2.77;;;;;;;;;;5031477;28;20041;-67
2020/12/27 08:07:42;;;;;;;3.60;2.70;;;;;;;;;;5033301;28;20031;-67
2020/12/27 08:10:22;;;;;;;6.60;3.00;;;;;;;;;;5033514;28;20033;-64
2020/12/27 08:12:58;;;;;;;4.10;2.80;;;;;;;;;;5029564;28;20461;-64
2020/12/27 08:15:25;;;;;;;5.43;2.67;;;;;;;;;;5027082;28;20644;-64
2020/12/27 08:17:52;;;;;;;5.60;2.77;;;;;;;;;;5025617;28;20029;-64
2020/12/27 08:20:18;;;;;;;6.43;3.03;;;;;;;;;;5025202;28;20470;-64
2020/12/27 08:22:44;;;;;;;4.27;2.87;;;;;;;;;;5021404;28;20462;-65
2020/12/27 08:25:11;;;;;;;4.23;2.97;;;;;;;;;;5026441;28;20101;-65
2020/12/27 08:27:37;;;;;;;4.37;2.67;;;;;;;;;;5033443;28;20053;-65
2020/12/27 08:30:04;;;;;;;4.80;2.90;;;;;;;;;;5033918;28;20022;-64
2020/12/27 08:32:30;;;;;;;5.13;2.80;;;;;;;;;;5025293;28;20034;-64
2020/12/27 08:34:56;;;;;;;4.27;3.00;;;;;;;;;;5014311;28;20034;-64
2020/12/27 08:37:23;;;;;;;5.97;2.90;;;;;;;;;;5012384;28;20054;-65
2020/12/27 08:39:57;;;;;;;4.90;2.60;;;;;;;;;;5011283;28;20045;-64
2020/12/27 08:42:27;;;;;;;4.90;2.50;;;;;;;;;;5017647;28;20041;-64
2020/12/27 08:45:03;;;;;;;8.30;4.00;;;;;;;;;;5024842;28;20026;-63
2020/12/27 08:47:47;;;;;;;10.67;5.97;;;;;;;;;;5025295;28;20026;-65
2020/12/27 08:50:34;;;;;;;6.60;4.07;;;;;;;;;;5025285;28;20061;-66
2020/12/27 08:53:01;;;;;;;6.53;3.97;;;;;;;;;;5018448;28;20100;-66
2020/12/27 08:55:29;;;;;;;6.63;3.47;;;;;;;;;;5024240;28;20021;-66
2020/12/27 08:57:56;;;;;;;4.57;2.40;;;;;;;;;;5021345;28;20071;-65
2020/12/27 09:00:22;;;;;;;4.07;2.73;;;;;;;;;;5015550;28;20097;-66
2020/12/27 09:02:58;;;;;;;4.47;3.00;;;;;;;;;;5015005;28;20462;-65
2020/12/27 09:05:27;;;;;;;5.30;2.80;;;;;;;;;;5015242;28;20018;-65
2020/12/27 09:07:53;;;;;;;4.97;3.07;;;;;;;;;;5015209;28;20071;-65
2020/12/27 09:10:22;;;;;;;5.20;3.23;;;;;;;;;;5015083;28;20022;-65
2020/12/27 09:13:02;;;;;;;5.87;3.03;;;;;;;;;;5015481;28;20026;-65
2020/12/27 09:15:28;;;;;;;5.10;3.17;;;;;;;;;;5014101;28;20037;-65
2020/12/27 09:17:55;;;;;;;6.40;3.60;;;;;;;;;;5012018;28;20034;-65
2020/12/27 09:20:22;;;;;;;7.10;4.10;;;;;;;;;;5012411;28;20084;-64
2020/12/27 09:22:48;;;;;;;5.67;3.30;;;;;;;;;;5014913;28;20064;-65
2020/12/27 09:25:18;;;;;;;6.70;3.60;;;7.10;59.00;;;;;;5015125;28;20030;-65
2020/12/27 09:27:44;;;;;;;5.93;3.80;;;4.70;56.00;;;;;;5014765;28;20022;-65
2020/12/27 09:30:13;;;;;;;9.23;6.90;;;4.80;54.30;;;;;;5014924;28;20033;-65
2020/12/27 09:32:39;;;;;;;4.67;3.13;;;4.80;51.60;;;;;;5013637;28;20041;-65
2020/12/27 09:35:05;;;;;;;5.43;3.30;;;4.90;52.70;;;;;;5011780;28;20026;-66
2020/12/27 09:37:35;;;;;;;7.97;4.17;;;5.00;52.20;;;;;;5011236;28;20058;-65
2020/12/27 09:40:03;;;;;;;6.93;3.90;;;5.10;53.50;;;;;;5012934;28;20648;-65
2020/12/27 09:42:32;;;;;;;9.47;3.57;;;5.10;52.20;;;;;;5013341;28;20037;-65
2020/12/27 09:45:15;;;;;;;5.67;3.50;;;5.30;53.70;;;;;;5013173;28;20033;-65
2020/12/27 09:47:59;;;;;;;9.00;3.58;;;5.40;54.40;;;;;;5014020;28;20032;-65
2020/12/27 09:50:34;;;;;;;7.00;4.37;;;5.50;54.10;;;;;;5014224;28;20048;-65
2020/12/27 09:53:01;;;;;;;7.03;4.57;;;5.60;54.00;;;;;;5014322;28;20073;-65
2020/12/27 09:55:28;;;;;;;6.63;4.37;;;5.70;54.00;;;;;;5013620;28;20510;-65
2020/12/27 09:57:54;;;;;;;6.60;4.40;;;5.70;53.60;;;;;;5013183;28;20092;-65
2020/12/27 10:00:20;;;;;;;8.90;4.87;;;5.80;53.30;;;;;;5011826;28;20036;-65
2020/12/27 10:02:46;;;;;;;7.00;4.83;;;5.90;53.90;;;;;;5011501;28;20054;-66
2020/12/27 10:05:11;;;;;;;7.77;5.40;;;6.00;54.00;;;;;;5013110;28;20105;-65
2020/12/27 10:07:38;;;;;;;7.70;4.57;;;6.00;54.20;;;;;;5014169;28;20030;-65
2020/12/27 10:10:05;;;;;;;9.13;5.07;;;6.10;54.10;;;;;;5014187;28;20108;-65
2020/12/27 10:12:32;;;;;;;8.13;5.13;;;6.20;53.90;;;;;;5014170;28;20033;-65
2020/12/27 10:14:57;;;;;;;8.80;5.13;;;6.20;53.40;;;;;;5014453;28;20114;-64
2020/12/27 10:17:23;;;;;;;7.07;4.97;;;6.30;53.20;;;;;;5013972;28;20053;-65
2020/12/27 10:19:49;;;;;;;7.93;5.20;;;6.40;53.10;;;;;;5014035;28;20030;-65
2020/12/27 10:22:16;;;;;;;8.13;5.07;;;6.40;53.30;;;;;;5013669;28;20046;-65
2020/12/27 10:24:42;;;;;;;7.60;5.03;;;6.50;52.40;;;;;;5014042;28;20037;-64
2020/12/27 10:27:09;;;;;;;7.50;4.83;;;6.50;52.60;;;;;;5013574;28;20032;-65
2020/12/27 10:29:35;;;;;;;6.80;4.83;;;6.60;52.90;;;;;;5013610;28;20030;-65
2020/12/27 10:32:05;;;;;;;6.57;4.70;;;6.70;52.80;;;;;;5013852;28;20026;-65
2020/12/27 10:34:31;;;;;;;8.17;5.30;;;6.70;53.70;;;;;;5014020;28;20018;-65
2020/12/27 10:36:59;;;;;;;6.70;4.47;;;6.80;53.10;;;;;;5013286;28;20530;-65
2020/12/27 10:39:25;;;;;;;6.67;4.40;;;6.80;52.90;;;;;;5012330;28;20355;-65
2020/12/27 10:41:52;;;;;;;6.77;4.57;;;6.80;52.90;;;;;;5013829;28;20022;-65
2020/12/27 10:44:18;;;;;;;7.73;4.90;;;6.90;50.60;;;;;;5013665;28;20042;-64
2020/12/27 10:46:45;;;;;;;7.80;4.67;;;6.90;51.00;;;;;;5013593;28;20089;-65
2020/12/27 10:49:12;;;;;;;6.53;4.50;;;6.90;52.50;;;;;;5013684;28;20030;-65
2020/12/27 10:51:38;;;;;;;7.13;4.50;;;7.00;53.30;;;;;;5013435;28;20026;-65
2020/12/27 10:54:05;;;;;;;5.67;3.80;;;7.00;53.20;;;;;;5013799;28;20053;-65
2020/12/27 10:56:31;;;;;;;6.03;3.83;;;7.10;51.60;;;;;;5013524;28;20030;-65
2020/12/27 10:58:58;;;;;;;5.57;3.67;;;7.00;51.60;;;;;;5013539;28;20064;-65
2020/12/27 11:01:23;;;;;;;6.07;3.73;;;7.00;51.70;;;;;;5013763;28;20052;-65
2020/12/27 11:03:50;;;;;;;5.67;3.37;;;7.00;51.60;;;;;;5013486;28;20038;-65
2020/12/27 11:06:15;;;;;;;6.07;3.60;;;7.00;51.40;;;;;;5013389;28;20382;-65
2020/12/27 11:08:41;;;;;;;5.27;3.70;;;7.10;51.00;;;;;;5013592;28;20026;-65
2020/12/27 11:11:07;;;;;;;6.03;4.20;;;7.10;51.00;;;;;;5013539;28;20466;-66
2020/12/27 11:13:33;;;;;;;6.27;3.73;;;7.00;51.40;;;;;;5013483;28;20033;-65
2020/12/27 11:15:59;;;;;;;7.00;4.03;;;7.10;50.50;;;;;;5013419;28;20026;-65
2020/12/27 11:18:25;;;;;;;5.83;3.57;;;7.00;50.30;;;;;;5013430;28;20037;-64
2020/12/27 11:20:50;;;;;;;5.27;3.87;;;7.00;50.80;;;;;;5013034;28;20030;-65
2020/12/27 11:23:16;;;;;;;10.83;5.33;;;7.00;50.60;;;;;;5013377;28;20038;-65
2020/12/27 11:25:42;;;;;;;4.70;3.60;;;6.90;51.40;;;;;;5013560;28;20030;-65
2020/12/27 11:28:07;;;;;;;5.13;3.67;;;7.00;51.30;;;;;;5013453;28;20025;-65
2020/12/27 11:30:33;;;;;;;5.13;3.20;;;7.00;51.50;;;;;;5013166;28;20030;-65
2020/12/27 11:32:59;;;;;;;4.87;3.23;;;7.00;51.20;;;;;;5013340;28;20113;-65
2020/12/27 11:35:24;;;;;;;5.13;3.40;;;7.10;50.90;;;;;;5013219;28;20038;-65
2020/12/27 11:37:51;;;;;;;5.40;3.70;;;7.10;51.50;;;;;;5013079;28;20054;-65
2020/12/27 11:40:17;;;;;;;6.37;3.60;;;7.10;51.80;;;;;;5016624;28;20068;-65
2020/12/27 11:42:42;;;;;;;5.10;3.07;;;7.20;51.30;;;;;;5017200;28;20034;-65
2020/12/27 11:45:08;;;;;;;5.63;3.90;;;7.20;50.30;;;;;;5016981;28;20033;-65
2020/12/27 11:47:36;;;;;;;5.10;3.37;;;7.10;50.70;;;;;;5017154;28;20386;-65
2020/12/27 11:50:03;;;;;;;4.80;3.40;;;7.10;51.10;;;;;;5016972;28;20033;-64
2020/12/27 11:52:28;;;;;;;6.27;3.50;;;7.10;50.30;;;;;;5016995;28;20030;-65
2020/12/27 11:54:54;;;;;;;5.00;3.30;;;7.00;51.00;;;;;;5016649;28;20393;-65
2020/12/27 11:57:20;;;;;;;4.43;2.90;;;7.00;50.40;;;;;;5016802;28;20092;-64
2020/12/27 11:59:46;;;;;;;5.87;3.40;;;7.00;50.40;;;;;;5013724;28;20034;-65
2020/12/27 12:02:12;;;;;;;6.00;3.40;;;6.90;50.50;;;;;;5013974;28;20577;-65
2020/12/27 12:04:37;;;;;;;5.87;3.30;;;6.90;50.20;;;;;;5016175;28;20056;-65
2020/12/27 12:07:03;;;;;;;6.13;3.77;;;6.90;50.70;;;;;;5016553;28;20029;-65
2020/12/27 12:09:29;;;;;;;5.97;4.00;;;6.90;51.10;;;;;;5016718;28;20038;-65
2020/12/27 12:11:55;;;;;;;9.80;5.57;;;6.90;50.80;;;;;;5016887;28;20539;-64
2020/12/27 12:14:21;;;;;;;10.37;6.50;;;7.00;51.10;;;;;;5016466;28;20037;-65
2020/12/27 12:16:46;;;;;;;10.83;6.20;;;7.00;51.30;;;;;;5016541;28;20061;-65
2020/12/27 12:19:12;;;;;;;9.37;5.70;;;7.00;51.40;;;;;;5016407;28;20036;-64
2020/12/27 12:21:38;;;;;;;9.63;5.47;;;7.00;50.60;;;;;;5016311;28;20037;-65
2020/12/27 12:24:04;;;;;;;8.37;5.97;;;7.00;50.90;;;;;;5013688;28;20444;-65
2020/12/27 12:26:32;;;;;;;9.17;4.50;;;7.00;50.60;;;;;;5013402;28;20026;-65
2020/12/27 12:28:59;;;;;;;6.33;4.47;;;7.00;51.20;;;;;;5013571;28;20068;-64
2020/12/27 12:31:26;;;;;;;5.23;3.27;;;7.10;51.40;;;;;;5015991;28;20022;-65
2020/12/27 12:33:53;;;;;;;6.03;3.63;;;7.10;51.20;;;;;;5016101;28;20022;-64
2020/12/27 12:36:20;;;;;;;6.70;4.00;;;7.00;50.50;;;;;;5015526;28;20071;-65
2020/12/27 12:38:46;;;;;;;6.17;4.20;;;7.10;50.90;;;;;;5015057;28;20033;-65
2020/12/27 12:41:15;;;;;;;6.97;3.80;;;7.10;50.50;;;;;;5015939;28;20022;-66
2020/12/27 12:43:42;;;;;;;6.10;3.70;;;7.10;50.50;;;;;;5015562;28;20496;-64
2020/12/27 12:46:08;;;;;;;7.67;4.60;;;7.10;50.70;;;;;;5015470;28;20076;-65
2020/12/27 12:48:35;;;;;;;6.23;4.40;;;7.00;50.80;;;;;;5015676;28;20466;-65
2020/12/27 12:51:01;;;;;;;7.07;3.80;;;7.00;50.90;;;;;;5015332;28;20390;-65
2020/12/27 12:53:27;;;;;;;5.63;3.73;;;7.00;50.90;;;;;;5015164;28;20101;-65
2020/12/27 12:55:53;;;;;;;7.53;4.33;;;7.10;51.00;;;;;;5015695;28;20131;-65
2020/12/27 12:58:19;;;;;;;6.07;3.23;;;7.10;51.10;;;;;;5015500;28;20037;-65
2020/12/27 13:00:44;;;;;;;5.13;2.87;;;7.10;51.40;;;;;;5014949;28;20022;-65
2020/12/27 13:03:10;;;;;;;6.20;3.30;;;7.10;50.90;;;;;;5015107;28;20363;-65
2020/12/27 13:05:36;;;;;;;5.23;3.30;;;7.10;49.10;;;;;;5015208;28;20026;-65
2020/12/27 13:08:05;;;;;;;5.00;3.27;;;7.00;48.90;;;;;;5015154;28;20096;-65
2020/12/27 13:10:34;;;;;;;5.57;3.80;;;7.00;50.60;;;;;;5015277;28;20026;-65
2020/12/27 13:13:00;;;;;;;5.10;3.43;;;7.00;50.20;;;;;;5015036;28;20029;-66
2020/12/27 13:15:26;;;;;;;6.03;4.00;;;7.00;50.30;;;;;;5014616;28;20116;-65
2020/12/27 13:17:52;;;;;;;7.33;3.80;;;6.90;49.10;;;;;;5015213;28;20470;-65
2020/12/27 13:20:18;;;;;;;7.50;3.60;;;6.90;50.00;;;;;;5015106;28;20022;-66
2020/12/27 13:22:44;;;;;;;10.43;4.90;;;6.90;51.00;;;;;;5014614;28;20029;-65
2020/12/27 13:25:10;;;;;;;11.97;5.90;;;6.90;51.50;;;;;;5014412;28;20026;-65
2020/12/27 13:27:37;;;;;;;5.77;3.67;;;6.90;50.70;;;;;;5014624;28;20026;-65
2020/12/27 13:30:06;;;;;;;6.20;3.97;;;6.90;50.20;;;;;;5014601;28;20065;-65
2020/12/27 13:32:32;;;;;;;5.93;3.87;;;6.90;51.40;;;;;;5014290;28;20026;-65
2020/12/27 13:34:57;;;;;;;8.13;4.17;;;6.80;50.90;;;;;;5014260;28;20022;-65
2020/12/27 13:37:23;;;;;;;5.20;3.60;;;6.90;50.90;;;;;;5014420;28;20042;-65
2020/12/27 13:39:49;;;;;;;5.67;3.80;;;6.80;50.90;;;;;;5014378;28;20032;-65
2020/12/27 13:42:14;;;;;;;7.60;4.10;;;6.80;50.50;;;;;;5014449;28;20065;-65
2020/12/27 13:44:40;;;;;;;4.93;3.63;;;6.80;50.00;;;;;;5014180;28;20033;-65
2020/12/27 13:47:06;;;;;;;6.80;3.63;;;6.80;50.30;;;;;;5012956;28;20026;-65
2020/12/27 13:49:32;;;;;;;6.13;3.60;;;6.70;50.40;;;;;;5013985;28;20049;-65
2020/12/27 13:51:58;;;;;;;5.40;3.47;;;6.70;51.00;;;;;;5014325;28;20038;-65
2020/12/27 13:54:23;;;;;;;5.50;3.70;;;6.60;50.20;;;;;;5013880;28;20085;-65
2020/12/27 13:56:49;;;;;;;5.60;3.93;;;6.50;51.10;;;;;;5014261;28;20068;-65
2020/12/27 13:59:15;;;;;;;5.10;3.37;;;6.50;51.30;;;;;;5012300;28;20108;-66
2020/12/27 14:01:45;;;;;;;6.03;3.97;;;6.50;51.80;;;;;;5010625;28;20053;-65
2020/12/27 14:04:11;;;;;;;5.37;3.90;;;6.50;52.20;;;;;;5012616;28;20030;-65